Time;durP1;ratioP1;P1;durP2;ratioP2;P2;SDS_P1;SDS_P2;PMS_P1;PMS_P2;Temp;Humidity;BMP_temperature;BMP_pressure;BME280_temperature;BME280_humidity;BME280_pressure;Samples;Min_cycle;Max_cycle;Signal;HPM_P1;HPM_P2
2021/04/17 00:01:49;;;;;;;6.63;6.00;;;;;;;;;;5009053;28;20504;-62
2021/04/17 00:04:16;;;;;;;6.93;5.97;;;;;;;;;;5011577;28;20468;-63
2021/04/17 00:06:43;;;;;;;8.93;6.10;;;;;;;;;;5010840;28;20449;-63
2021/04/17 00:09:12;;;;;;;6.10;5.60;;;;;;;;;;5010706;28;20478;-62
2021/04/17 00:11:40;;;;;;;7.33;5.80;;;;;;;;;;5010399;28;20484;-63
2021/04/17 00:14:07;;;;;;;6.70;6.20;;;;;;;;;;5011132;28;20453;-62
2021/04/17 00:16:34;;;;;;;9.93;6.30;;;;;;;;;;4999613;28;20450;-62
2021/04/17 00:19:01;;;;;;;7.83;6.47;;;;;;;;;;5010047;28;20477;-63
2021/04/17 00:21:27;;;;;;;6.80;6.20;;;;;;;;;;4996538;28;20446;-63
2021/04/17 00:23:54;;;;;;;6.30;5.70;;;;;;;;;;5010982;28;20453;-63
2021/04/17 00:26:20;;;;;;;8.20;6.37;;;;;;;;;;5008269;28;20454;-63
2021/04/17 00:28:48;;;;;;;6.93;6.33;;;;;;;;;;5005939;28;20847;-63
2021/04/17 00:31:14;;;;;;;6.70;6.10;;;;;;;;;;5012583;28;20488;-63
2021/04/17 00:33:41;;;;;;;7.90;6.20;;;;;;;;;;5011304;28;20455;-63
2021/04/17 00:36:08;;;;;;;6.60;5.90;;;;;;;;;;5014701;28;20833;-63
2021/04/17 00:38:34;;;;;;;7.10;6.37;;;;;;;;;;5011740;28;21054;-63
2021/04/17 00:41:01;;;;;;;9.07;6.20;;;;;;;;;;4994739;28;20447;-63
2021/04/17 00:43:29;;;;;;;7.93;7.10;;;;;;;;;;4997421;28;20840;-63
2021/04/17 00:45:56;;;;;;;7.40;6.70;;;;;;;;;;4994398;28;20869;-63
2021/04/17 00:48:23;;;;;;;7.03;6.33;;;;;;;;;;5001819;28;20484;-63
2021/04/17 00:50:49;;;;;;;6.03;5.43;;;;;;;;;;5013735;28;20492;-63
2021/04/17 00:53:16;;;;;;;8.30;6.07;;;;;;;;;;5013280;28;20827;-64
2021/04/17 00:55:43;;;;;;;6.90;5.60;;;;;;;;;;4994787;28;20474;-63
2021/04/17 00:58:10;;;;;;;6.30;5.70;;;;;;;;;;4999994;28;20470;-64
2021/04/17 01:00:37;;;;;;;7.10;6.40;;;;;;;;;;5014298;28;20503;-64
2021/04/17 01:03:09;;;;;;;7.30;5.83;;;;;;;;;;5013290;28;20461;-64
2021/04/17 01:05:37;;;;;;;6.87;6.17;;;;;;;;;;5003998;28;20474;-63
2021/04/17 01:08:06;;;;;;;7.00;5.67;;;;;;;;;;5012401;28;20500;-63
2021/04/17 01:10:36;;;;;;;7.07;6.17;;;;;;;;;;5013465;28;21062;-64
2021/04/17 01:13:04;;;;;;;6.20;5.50;;;;;;;;;;5011294;28;21099;-63
2021/04/17 01:15:31;;;;;;;7.50;6.00;;;;;;;;;;5011623;28;20457;-63
2021/04/17 01:17:58;;;;;;;6.07;5.47;;;;;;;;;;5011834;28;20489;-63
2021/04/17 01:20:31;;;;;;;6.03;5.40;;;;;;;;;;5012770;28;20613;-63
2021/04/17 01:23:05;;;;;;;6.40;5.00;;;;;;;;;;5013186;28;20458;-63
2021/04/17 01:25:42;;;;;;;7.50;6.10;;;;;;;;;;5012927;28;20970;-63
2021/04/17 01:28:09;;;;;;;5.90;5.40;;;;;;;;;;5013054;28;20523;-63
2021/04/17 01:30:35;;;;;;;6.27;5.23;;;;;;;;;;5012939;28;20481;-62
2021/04/17 01:33:02;;;;;;;9.70;5.53;;;;;;;;;;5012426;28;20453;-63
2021/04/17 01:35:29;;;;;;;6.50;5.70;;;;;;;;;;4994277;28;20458;-64
2021/04/17 01:38:04;;;;;;;5.70;4.93;;;;;;;;;;5009845;28;20901;-63
2021/04/17 01:40:31;;;;;;;6.33;5.00;;;;;;;;;;4994553;28;20458;-63
2021/04/17 01:42:59;;;;;;;6.13;5.33;;;;;;;;;;5010729;28;20453;-63
2021/04/17 01:45:27;;;;;;;7.13;5.53;;;;;;;;;;4993050;28;20700;-63
2021/04/17 01:47:55;;;;;;;5.30;4.80;;;;;;;;;;4995485;28;20478;-63
2021/04/17 01:50:22;;;;;;;4.90;4.50;;;;;;;;;;5013027;28;21023;-64
2021/04/17 01:52:49;;;;;;;7.43;5.13;;;;;;;;;;4999344;28;20450;-64
2021/04/17 01:55:17;;;;;;;6.50;5.27;;;;;;;;;;4997999;28;20446;-64
2021/04/17 01:57:45;;;;;;;7.10;4.90;;;;;;;;;;5009603;28;20476;-64
2021/04/17 02:00:13;;;;;;;5.40;4.90;;;;;;;;;;4997180;28;20449;-63
2021/04/17 02:02:40;;;;;;;6.10;5.20;;;;;;;;;;5011903;28;20456;-63
2021/04/17 02:05:07;;;;;;;5.33;4.83;;;;;;;;;;4996434;28;21063;-63
2021/04/17 02:07:34;;;;;;;5.67;4.70;;;;;;;;;;5009399;28;20450;-63
2021/04/17 02:10:00;;;;;;;6.73;5.37;;;;;;;;;;5012491;28;20458;-63
2021/04/17 02:12:27;;;;;;;5.73;4.50;;;;;;;;;;5011764;28;20487;-63
2021/04/17 02:14:54;;;;;;;5.37;4.83;;;;;;;;;;5012074;28;20453;-63
2021/04/17 02:17:24;;;;;;;5.30;4.70;;;;;;;;;;4992992;28;20463;-63
2021/04/17 02:19:53;;;;;;;5.27;4.77;;;;;;;;;;5013086;28;20802;-63
2021/04/17 02:22:21;;;;;;;6.77;5.10;;;;;;;;;;4993508;28;20455;-63
2021/04/17 02:24:48;;;;;;;6.27;4.93;;;;;;;;;;5013679;28;20438;-63
2021/04/17 02:27:14;;;;;;;5.07;4.63;;;;;;;;;;5011910;28;20462;-63
2021/04/17 02:29:41;;;;;;;5.43;5.00;;;;;;;;;;4995977;28;20528;-63
2021/04/17 02:32:14;;;;;;;5.77;5.13;;;;;;;;;;5009602;28;20477;-63
2021/04/17 02:34:41;;;;;;;7.67;5.37;;;;;;;;;;5014244;28;20430;-63
2021/04/17 02:37:08;;;;;;;6.77;5.30;;;;;;;;;;4997106;28;20458;-63
2021/04/17 02:39:34;;;;;;;5.17;4.20;;;;;;;;;;5011882;28;20485;-63
2021/04/17 02:42:01;;;;;;;5.40;4.87;;;;;;;;;;4998906;28;20818;-63
2021/04/17 02:44:28;;;;;;;6.90;5.10;;;;;;;;;;5009186;28;20508;-63
2021/04/17 02:46:54;;;;;;;4.87;4.30;;;;;;;;;;5001332;28;20454;-64
2021/04/17 02:49:21;;;;;;;6.00;5.10;;;;;;;;;;4995096;28;20466;-64
2021/04/17 02:51:48;;;;;;;5.17;4.73;;;;;;;;;;4994012;28;20482;-64
2021/04/17 02:54:15;;;;;;;5.57;5.00;;;;;;;;;;4995559;28;20532;-63
2021/04/17 02:56:42;;;;;;;5.33;4.50;;;;;;;;;;4993409;28;20451;-64
2021/04/17 02:59:09;;;;;;;5.27;4.70;;;;;;;;;;4992828;28;20474;-63
2021/04/17 03:01:35;;;;;;;7.73;4.80;;;;;;;;;;4994030;28;20447;-64
2021/04/17 03:04:02;;;;;;;5.77;4.63;;;;;;;;;;4993224;28;20447;-63
2021/04/17 03:06:28;;;;;;;4.77;4.37;;;;;;;;;;5000662;28;20452;-64
2021/04/17 03:08:56;;;;;;;5.27;4.77;;;;;;;;;;5002541;28;20489;-64
2021/04/17 03:11:23;;;;;;;5.70;5.00;;;;;;;;;;4999619;28;20473;-64
2021/04/17 03:13:49;;;;;;;5.20;4.70;;;;;;;;;;5012773;28;20445;-63
2021/04/17 03:16:16;;;;;;;6.17;4.80;;;;;;;;;;5010912;28;20452;-63
2021/04/17 03:18:42;;;;;;;5.70;5.10;;;;;;;;;;5011513;28;20469;-64
2021/04/17 03:21:09;;;;;;;4.97;4.53;;;;;;;;;;5009931;28;20458;-64
2021/04/17 03:23:36;;;;;;;6.63;5.80;;;;;;;;;;5001524;28;20473;-63
2021/04/17 03:26:03;;;;;;;7.70;4.90;;;;;;;;;;4999604;28;20457;-63
2021/04/17 03:28:31;;;;;;;6.43;5.10;;;;;;;;;;5005958;28;20833;-63
2021/04/17 03:30:57;;;;;;;6.37;5.30;;;;;;;;;;5010559;28;20484;-63
2021/04/17 03:33:24;;;;;;;7.80;5.20;;;;;;;;;;4992282;28;20455;-63
2021/04/17 03:35:51;;;;;;;6.30;5.23;;;;;;;;;;4995049;28;20447;-63
2021/04/17 03:38:18;;;;;;;8.27;5.70;;;;;;;;;;5010319;28;20477;-63
2021/04/17 03:40:45;;;;;;;6.07;5.57;;;;;;;;;;5011587;28;20516;-63
2021/04/17 03:43:12;;;;;;;5.80;5.30;;;;;;;;;;5011547;28;20504;-63
2021/04/17 03:45:39;;;;;;;7.90;5.70;;;;;;;;;;5010679;28;20452;-63
2021/04/17 03:48:06;;;;;;;6.23;5.03;;;;;;;;;;5010960;28;20679;-63
2021/04/17 03:50:32;;;;;;;6.80;5.87;;;;;;;;;;5010859;28;20450;-63
2021/04/17 03:52:59;;;;;;;8.43;4.97;;;;;;;;;;5010330;28;20465;-63
2021/04/17 03:55:26;;;;;;;7.57;5.73;;;;;;;;;;5010754;28;20452;-63
2021/04/17 03:57:52;;;;;;;5.60;5.10;;;;;;;;;;5010764;28;20477;-63
2021/04/17 04:00:20;;;;;;;7.77;6.53;;;;;;;;;;5011624;28;20556;-63
2021/04/17 04:02:48;;;;;;;7.20;5.37;;;;;;;;;;5007158;28;20496;-63
2021/04/17 04:05:15;;;;;;;6.73;6.10;;;;;;;;;;5015351;28;20449;-63
2021/04/17 04:07:42;;;;;;;7.63;6.83;;;;;;;;;;5001964;28;20454;-63
2021/04/17 04:10:09;;;;;;;8.37;6.67;;;;;;;;;;4995920;28;20454;-63
2021/04/17 04:12:35;;;;;;;8.30;7.00;;;;;;;;;;5002960;28;20482;-64
2021/04/17 04:15:02;;;;;;;8.93;6.50;;;;;;;;;;5015224;28;20460;-63
2021/04/17 04:17:29;;;;;;;7.13;6.43;;;;;;;;;;5012180;28;20460;-63
2021/04/17 04:19:56;;;;;;;8.40;7.03;;;;;;;;;;5034346;28;20445;-63
2021/04/17 04:22:23;;;;;;;7.80;7.00;;;;;;;;;;5024529;28;20828;-64
2021/04/17 04:24:49;;;;;;;7.13;6.30;;;;;;;;;;5014814;28;20457;-64
2021/04/17 04:27:16;;;;;;;6.93;6.27;;;;;;;;;;5013213;28;20897;-64
2021/04/17 04:29:42;;;;;;;8.03;7.30;;;;;;;;;;5014339;28;20473;-64
2021/04/17 04:32:09;;;;;;;7.57;6.73;;;;;;;;;;5000013;28;20845;-64
2021/04/17 04:34:37;;;;;;;7.33;6.63;;;;;;;;;;5010655;28;20964;-64
2021/04/17 04:37:04;;;;;;;7.30;6.70;;;;;;;;;;5014152;28;20518;-64
2021/04/17 04:39:30;;;;;;;8.50;7.70;;;;;;;;;;5040483;22;21009;-65
2021/04/17 04:41:57;;;;;;;7.17;6.47;;;;;;;;;;5026800;28;20870;-66
2021/04/17 04:44:23;;;;;;;8.47;6.73;;;;;;;;;;5033436;28;20449;-64
2021/04/17 04:46:50;;;;;;;7.67;6.73;;;;;;;;;;5033423;28;20449;-64
2021/04/17 04:49:17;;;;;;;8.50;6.80;;;;;;;;;;5018300;28;20465;-64
2021/04/17 04:51:44;;;;;;;7.67;6.97;;;;;;;;;;5013594;28;20482;-64
2021/04/17 04:54:11;;;;;;;7.20;6.60;;;;;;;;;;5014089;28;20461;-64
2021/04/17 04:56:37;;;;;;;7.23;6.37;;;;;;;;;;5010883;28;20450;-65
2021/04/17 04:59:04;;;;;;;6.70;6.03;;;;;;;;;;5014446;28;20446;-64
2021/04/17 05:01:31;;;;;;;9.90;6.57;;;;;;;;;;5013577;28;20472;-65
2021/04/17 05:03:57;;;;;;;7.00;6.40;;;;;;;;;;5013643;28;20477;-65
2021/04/17 05:06:24;;;;;;;6.80;6.20;;;;;;;;;;5010784;28;20464;-64
2021/04/17 05:08:51;;;;;;;6.80;6.20;;;;;;;;;;4994799;28;20454;-64
2021/04/17 05:11:18;;;;;;;6.87;6.10;;;;;;;;;;4994264;28;20486;-64
2021/04/17 05:13:45;;;;;;;6.90;6.20;;;;;;;;;;4994058;28;20451;-66
2021/04/17 05:16:13;;;;;;;6.80;6.10;;;;;;;;;;4998502;28;20472;-64
2021/04/17 05:18:40;;;;;;;6.57;6.00;;;;;;;;;;4994397;28;20961;-64
2021/04/17 05:21:06;;;;;;;8.70;6.93;;;;;;;;;;4997992;28;20472;-64
2021/04/17 05:23:33;;;;;;;8.50;7.13;;;;;;;;;;5012929;28;20788;-66
2021/04/17 05:26:01;;;;;;;7.17;6.57;;;;;;;;;;5010913;28;20462;-65
2021/04/17 05:28:27;;;;;;;6.90;6.23;;;;;;;;;;4993779;28;20454;-64
2021/04/17 05:30:54;;;;;;;7.00;6.33;;;;;;;;;;4999895;28;20482;-64
2021/04/17 05:33:20;;;;;;;7.77;6.27;;;;;;;;;;5013433;28;20519;-64
2021/04/17 05:35:47;;;;;;;7.53;6.73;;;;;;;;;;5012042;28;20461;-64
2021/04/17 05:38:14;;;;;;;6.93;6.33;;;;;;;;;;5014035;28;20458;-63
2021/04/17 05:40:40;;;;;;;7.50;5.80;;;;;;;;;;5010626;28;20484;-64
2021/04/17 05:43:08;;;;;;;8.30;7.53;;;;;;;;;;4994167;28;20456;-64
2021/04/17 05:45:34;;;;;;;7.13;6.37;;;;;;;;;;4996389;28;20457;-64
2021/04/17 05:48:01;;;;;;;8.67;6.70;;;;;;;;;;5011913;28;20453;-63
2021/04/17 05:50:28;;;;;;;7.50;6.77;;;;;;;;;;5012451;28;20469;-63
2021/04/17 05:52:54;;;;;;;7.50;6.80;;;;;;;;;;5002270;28;20462;-65
2021/04/17 05:55:21;;;;;;;9.17;6.83;;;;;;;;;;5011959;28;20937;-64
2021/04/17 05:57:47;;;;;;;6.90;5.80;;;;;;;;;;5011040;28;20450;-64
2021/04/17 06:00:15;;;;;;;7.07;6.13;;;;;;;;;;5013246;28;20504;-64
2021/04/17 06:02:42;;;;;;;6.93;6.33;;;;;;;;;;4996114;28;20509;-64
2021/04/17 06:05:09;;;;;;;7.23;6.43;;;;;;;;;;4993263;28;20451;-65
2021/04/17 06:07:36;;;;;;;6.50;5.90;;;;;;;;;;4994244;28;20486;-64
2021/04/17 06:10:03;;;;;;;7.90;6.07;;;;;;;;;;4992973;28;20470;-66
2021/04/17 06:12:30;;;;;;;7.43;5.80;;;;;;;;;;4993699;28;20482;-65
2021/04/17 06:14:56;;;;;;;6.23;5.63;;;;;;;;;;4993193;28;20458;-65
2021/04/17 06:17:24;;;;;;;3.63;2.97;;;;;;;;;;4993296;28;20809;-63
2021/04/17 06:19:51;;;;;;;6.20;2.60;;;;;;;;;;4997256;28;20484;-65
2021/04/17 06:22:17;;;;;;;6.47;2.83;;;;;;;;;;5012357;28;20453;-65
2021/04/17 06:24:44;;;;;;;5.47;2.57;;;;;;;;;;5009422;28;20457;-66
2021/04/17 06:27:11;;;;;;;5.57;2.67;;;;;;;;;;5010633;28;20948;-65
2021/04/17 06:29:38;;;;;;;6.40;3.00;;;;;;;;;;5010306;28;20481;-66
2021/04/17 06:32:05;;;;;;;5.53;2.73;;;;;;;;;;5009958;28;20728;-66
2021/04/17 06:34:33;;;;;;;4.73;2.43;;;;;;;;;;5012003;28;20453;-66
2021/04/17 06:36:59;;;;;;;3.33;2.10;;;;;;;;;;5012061;28;20504;-67
2021/04/17 06:39:26;;;;;;;2.90;2.20;;;;;;;;;;5011653;28;20477;-67
2021/04/17 06:41:54;;;;;;;3.70;2.00;;;;;;;;;;4995802;28;20470;-67
2021/04/17 06:44:22;;;;;;;6.77;2.63;;;;;;;;;;4996866;28;20907;-66
2021/04/17 06:46:49;;;;;;;5.33;2.80;;;;;;;;;;5010789;28;20457;-68
2021/04/17 06:49:15;;;;;;;3.20;2.53;;;;;;;;;;5011395;28;20457;-66
2021/04/17 06:51:46;;;;;;;4.37;2.37;;;;;;;;;;5011727;28;20481;-66
2021/04/17 06:54:16;;;;;;;2.90;2.37;;;;;;;;;;5010876;28;20461;-65
2021/04/17 06:56:43;;;;;;;2.63;2.10;;;;;;;;;;5005765;28;20961;-65
2021/04/17 06:59:10;;;;;;;2.70;2.47;;;;;;;;;;5010798;28;20445;-65
2021/04/17 07:01:38;;;;;;;2.90;2.07;;;;;;;;;;5000321;28;20455;-66
2021/04/17 07:04:05;;;;;;;9.03;2.80;;;;;;;;;;5010036;28;20461;-66
2021/04/17 07:06:32;;;;;;;5.67;2.70;;;;;;;;;;5004665;28;20449;-66
2021/04/17 07:08:59;;;;;;;4.50;2.77;;;;;;;;;;5012183;28;20449;-66
2021/04/17 07:11:26;;;;;;;5.50;2.60;;;;;;;;;;5002267;28;20481;-67
2021/04/17 07:14:09;;;;;;;3.40;2.40;;;;;;;;;;5011420;28;20441;-65
2021/04/17 07:16:51;;;;;;;3.80;1.90;;;;;;;;;;5001066;28;20446;-67
2021/04/17 07:19:17;;;;;;;3.73;2.17;;;;;;;;;;4994983;28;20492;-66
2021/04/17 07:21:44;;;;;;;3.53;2.43;;;;;;;;;;5003326;28;20446;-65
2021/04/17 07:24:23;;;;;;;2.30;2.10;;;;;;;;;;5009791;28;20820;-67
2021/04/17 07:26:50;;;;;;;3.23;2.00;;;;;;;;;;5008117;28;20449;-66
2021/04/17 07:29:16;;;;;;;2.40;2.00;;;;;;;;;;5011264;28;21894;-67
2021/04/17 07:31:51;;;;;;;5.40;2.50;;;;;;;;;;5010434;28;20481;-66
2021/04/17 07:34:18;;;;;;;4.03;2.20;;;;;;;;;;5011295;28;20821;-66
2021/04/17 07:37:03;;;;;;;2.73;2.00;;;;;;;;;;5000195;28;20454;-66
2021/04/17 07:39:31;;;;;;;3.83;2.13;;;;;;;;;;5009549;28;20473;-66
2021/04/17 07:41:59;;;;;;;3.20;1.80;;;;;;;;;;4996482;28;20443;-66
2021/04/17 07:44:30;;;;;;;3.10;1.83;;;;;;;;;;5007415;28;20445;-66
2021/04/17 07:46:56;;;;;;;3.10;2.00;;;;;;;;;;5012729;28;20441;-67
2021/04/17 07:49:23;;;;;;;4.80;2.40;;;;;;;;;;5001156;28;20462;-66
2021/04/17 07:52:01;;;;;;;3.63;2.80;;;;;;;;;;4996509;28;20508;-66
2021/04/17 07:54:28;;;;;;;3.00;2.50;;;;;;;;;;5011521;28;20555;-66
2021/04/17 07:56:56;;;;;;;2.90;2.00;;;;;;;;;;5014657;28;20477;-66
2021/04/17 07:59:25;;;;;;;3.57;2.50;;;;;;;;;;5014786;28;20481;-66
2021/04/17 08:01:52;;;;;;;2.20;1.80;;;;;;;;;;5014377;28;20450;-66
2021/04/17 08:04:24;;;;;;;2.30;1.73;;;;;;;;;;5013839;28;20454;-66
2021/04/17 08:06:51;;;;;;;3.20;2.77;;;;;;;;;;5012237;28;20461;-65
2021/04/17 08:09:19;;;;;;;4.90;2.10;;;;;;;;;;5010175;28;20481;-66
2021/04/17 08:11:46;;;;;;;3.43;1.87;;;;;;;;;;5000532;28;21007;-67
2021/04/17 08:14:14;;;;;;;3.23;1.80;;;;;;;;;;5001157;28;20470;-63
2021/04/17 08:16:41;;;;;;;2.57;1.80;;;;;;;;;;5001825;28;20446;-66
2021/04/17 08:19:08;;;;;;;3.33;1.83;;;;;;;;;;5008888;28;20508;-66
2021/04/17 08:21:34;;;;;;;3.70;1.93;;;;;;;;;;5007954;28;20480;-66
2021/04/17 08:24:01;;;;;;;3.37;1.87;;;;;;;;;;5009987;28;20453;-66
2021/04/17 08:26:30;;;;;;;2.50;1.93;;;;;;;;;;5014164;28;21053;-66
2021/04/17 08:28:57;;;;;;;3.00;1.90;;;;;;;;;;5015316;28;20458;-66
2021/04/17 08:31:25;;;;;;;3.00;2.00;;;;;;;;;;5004460;28;20482;-66
2021/04/17 08:34:09;;;;;;;3.30;1.83;;;;;;;;;;5008599;28;20463;-67
2021/04/17 08:36:36;;;;;;;2.87;2.00;;;;;;;;;;5017386;28;20666;-66
2021/04/17 08:39:03;;;;;;;2.33;1.90;;;;;;;;;;5009568;28;20457;-64
2021/04/17 08:41:40;;;;;;;2.67;1.57;;;;;;;;;;5014717;28;20442;-65
2021/04/17 08:44:24;;;;;;;2.60;1.73;;;;;;;;;;5011741;28;20816;-66
2021/04/17 08:46:52;;;;;;;3.40;1.80;;;;;;;;;;4997693;28;20434;-66
2021/04/17 08:49:23;;;;;;;2.57;1.67;;;;;;;;;;4995513;28;20529;-66
2021/04/17 08:51:49;;;;;;;3.30;2.33;;;;;;;;;;5006260;28;20487;-66
2021/04/17 08:54:21;;;;;;;2.57;1.60;;;;;;;;;;5006412;28;20525;-65
2021/04/17 08:56:52;;;;;;;3.23;1.20;;;;;;;;;;5014445;28;20446;-66
2021/04/17 08:59:19;;;;;;;2.20;1.30;;;;;;;;;;5010820;28;20513;-66
2021/04/17 09:01:47;;;;;;;2.87;1.70;;;;;;;;;;5013691;28;20445;-66
2021/04/17 09:04:15;;;;;;;3.00;1.87;;;;;;;;;;4999098;28;20521;-66
2021/04/17 09:06:42;;;;;;;2.33;1.60;;;;;;;;;;4998374;28;20953;-67
2021/04/17 09:09:23;;;;;;;5.27;1.83;;;;;;;;;;5005714;28;20953;-66
2021/04/17 09:11:50;;;;;;;1.73;1.40;;;;;;;;;;4991898;28;20884;-66
2021/04/17 09:14:32;;;;;;;2.40;1.53;;;;;;;;;;5010884;28;20457;-67
2021/04/17 09:17:00;;;;;;;3.77;2.33;;;;;;;;;;5012445;28;20481;-68
2021/04/17 09:19:45;;;;;;;2.03;1.40;;;;;;;;;;5009027;28;20473;-66
2021/04/17 09:22:27;;;;;;;2.07;1.40;;;;;;;;;;5012970;28;20442;-66
2021/04/17 09:24:55;;;;;;;1.90;1.30;;;;;;;;;;4995833;28;20466;-66
2021/04/17 09:27:23;;;;;;;2.20;1.47;;;;;;;;;;5000662;28;20493;-66
2021/04/17 09:29:56;;;;;;;2.57;1.67;;;;;;;;;;4999967;28;20877;-66
2021/04/17 09:32:23;;;;;;;1.73;1.47;;;;;;;;;;4993684;28;20479;-66
2021/04/17 09:34:49;;;;;;;2.10;1.67;;;;;;;;;;5005949;28;20461;-66
2021/04/17 09:37:16;;;;;;;2.67;1.60;;;;;;;;;;5012573;28;20453;-66
2021/04/17 09:39:45;;;;;;;2.53;1.50;;;;;;;;;;5002663;28;20551;-66
2021/04/17 09:42:12;;;;;;;2.57;1.70;;;;;;;;;;5013469;28;20488;-66
2021/04/17 09:44:43;;;;;;;2.70;1.60;;;;;;;;;;5012735;28;20449;-66
2021/04/17 09:47:10;;;;;;;3.20;1.30;;;;;;;;;;5012748;28;20460;-66
2021/04/17 09:49:38;;;;;;;2.73;1.70;;;;;;;;;;5012960;28;20524;-66
2021/04/17 09:52:05;;;;;;;2.13;1.50;;;;;;;;;;5013174;28;20485;-67
2021/04/17 09:54:31;;;;;;;1.93;1.23;;;;;;;;;;5008544;28;20450;-66
2021/04/17 09:56:58;;;;;;;1.80;1.50;;;;;;;;;;5008189;28;20450;-65
2021/04/17 09:59:25;;;;;;;2.33;1.50;;;;;;;;;;5007657;28;20469;-64
2021/04/17 10:01:53;;;;;;;2.73;1.80;;;;;;;;;;5013053;28;20476;-65
2021/04/17 10:04:19;;;;;;;1.90;1.40;;;;;;;;;;5012585;28;20464;-65
2021/04/17 10:06:54;;;;;;;1.80;1.23;;;;;;;;;;5013005;28;20449;-66
2021/04/17 10:09:21;;;;;;;1.80;1.37;;;;;;;;;;5003879;28;20844;-64
2021/04/17 10:11:48;;;;;;;2.60;1.63;;;;;;;;;;5007897;28;20491;-67
2021/04/17 10:14:15;;;;;;;2.30;1.20;;;;;;;;;;5000443;28;20469;-65
2021/04/17 10:16:44;;;;;;;1.73;1.23;;;;;;;;;;5003838;28;20449;-66
2021/04/17 10:19:11;;;;;;;1.70;1.40;;;;;;;;;;5009889;28;20453;-65
2021/04/17 10:21:38;;;;;;;2.33;1.00;;;;;;;;;;5004756;28;20504;-65
2021/04/17 10:24:15;;;;;;;2.93;1.50;;;;;;;;;;5003621;28;20549;-66
2021/04/17 10:26:48;;;;;;;5.20;1.57;;;;;;;;;;5008659;28;20445;-66
2021/04/17 10:29:15;;;;;;;2.13;1.40;;;;;;;;;;5000424;28;20830;-66
2021/04/17 10:31:42;;;;;;;4.97;1.70;;;;;;;;;;5007798;28;20482;-66
2021/04/17 10:34:09;;;;;;;1.80;1.10;;;;;;;;;;5004607;28;20454;-65
2021/04/17 10:36:36;;;;;;;3.53;1.30;;;;;;;;;;5012046;28;20825;-66
2021/04/17 10:39:05;;;;;;;2.90;1.60;;;;;;;;;;5007745;28;20454;-65
2021/04/17 10:41:33;;;;;;;2.60;1.50;;;;;;;;;;5046220;22;20506;-62
2021/04/17 10:44:09;;;;;;;2.67;1.63;;;;;;;;;;4990825;28;20470;-62
2021/04/17 10:46:44;;;;;;;4.30;1.90;;;;;;;;;;4990867;28;20466;-61
2021/04/17 10:49:11;;;;;;;2.13;1.50;;;;;;;;;;4989014;28;20473;-63
2021/04/17 10:51:38;;;;;;;1.80;1.30;;;;;;;;;;4991033;28;20490;-62
2021/04/17 10:54:06;;;;;;;2.00;1.57;;;;;;;;;;4989748;28;20471;-63
2021/04/17 10:56:34;;;;;;;1.93;1.40;;;;;;;;;;4973050;28;20546;-63
2021/04/17 10:59:01;;;;;;;4.00;1.60;;;;;;;;;;4991246;28;20827;-62
2021/04/17 11:01:29;;;;;;;4.50;1.57;;;;;;;;;;4991565;28;20462;-63
2021/04/17 11:03:58;;;;;;;1.97;1.30;;;;;;;;;;4992304;28;20454;-63
2021/04/17 11:06:25;;;;;;;2.20;1.40;;;;;;;;;;4992199;28;20446;-62
2021/04/17 11:09:03;;;;;;;3.00;1.43;;;;;;;;;;4992466;28;20446;-63
2021/04/17 11:11:30;;;;;;;2.73;1.63;;;;;;;;;;4991710;28;20497;-63
2021/04/17 11:13:57;;;;;;;2.50;1.30;;;;;;;;;;4992310;28;20459;-62
2021/04/17 11:16:35;;;;;;;2.57;1.33;;;;;;;;;;4991926;28;20470;-62
2021/04/17 11:19:02;;;;;;;1.50;1.17;;;;;;;;;;4991827;28;20450;-62
2021/04/17 11:21:29;;;;;;;2.00;1.30;;;;;;;;;;4992374;28;20502;-62
2021/04/17 11:23:59;;;;;;;2.10;1.40;;;;;;;;;;4992170;28;20513;-62
2021/04/17 11:26:27;;;;;;;1.97;1.17;;;;;;;;;;4980618;28;20538;-62
2021/04/17 11:28:54;;;;;;;3.03;1.27;;;;;;;;;;4984724;28;20474;-62
2021/04/17 11:31:22;;;;;;;4.40;1.40;;;;;;;;;;4985091;28;20513;-65
2021/04/17 11:33:49;;;;;;;2.80;1.40;;;;;;;;;;4988299;28;20451;-63
2021/04/17 11:36:17;;;;;;;2.50;1.40;;;;;;;;;;4981226;28;20462;-63
2021/04/17 11:38:44;;;;;;;2.20;1.30;;;;;;;;;;4983409;28;20454;-63
2021/04/17 11:41:11;;;;;;;3.50;1.33;;;;;;;;;;4972734;28;20480;-62
2021/04/17 11:43:37;;;;;;;2.37;1.40;;;;;;;;;;4973083;28;20444;-61
2021/04/17 11:46:04;;;;;;;1.67;1.20;;;;;;;;;;4972572;28;20459;-61
2021/04/17 11:48:31;;;;;;;1.83;1.37;;;;;;;;;;4972900;28;20968;-61
2021/04/17 11:50:58;;;;;;;2.80;1.30;;;;;;;;;;4988325;28;20478;-61
2021/04/17 11:53:26;;;;;;;1.87;1.30;;;;;;;;;;4986515;28;20537;-61
2021/04/17 11:55:53;;;;;;;2.70;1.40;;;;;;;;;;4974638;28;20460;-61
2021/04/17 11:58:20;;;;;;;3.10;1.40;;;;;;;;;;4991561;28;20455;-61
2021/04/17 12:00:47;;;;;;;1.57;1.17;;;;;;;;;;4990530;28;20477;-61
2021/04/17 12:03:20;;;;;;;3.27;1.60;;;;;;;;;;4989478;28;20442;-62
2021/04/17 12:05:47;;;;;;;2.20;1.40;;;;;;;;;;4990765;28;20965;-61
2021/04/17 12:08:13;;;;;;;3.60;1.47;;;;;;;;;;4988945;28;20454;-61
2021/04/17 12:10:41;;;;;;;1.67;1.10;;;;;;;;;;4991975;28;20489;-61
2021/04/17 12:13:07;;;;;;;2.33;1.40;;;;;;;;;;4972916;28;20491;-61
2021/04/17 12:15:34;;;;;;;2.53;1.70;;;;;;;;;;4972251;28;20458;-61
2021/04/17 12:18:00;;;;;;;1.90;1.20;;;;;;;;;;4989728;28;20463;-61
2021/04/17 12:20:28;;;;;;;1.97;1.30;;;;;;;;;;4992341;28;20572;-61
2021/04/17 12:22:54;;;;;;;1.80;0.90;;;;;;;;;;4987256;28;20457;-61
2021/04/17 12:25:22;;;;;;;1.77;1.10;;;;;;;;;;4980697;28;20447;-61
2021/04/17 12:27:50;;;;;;;1.40;1.00;;;;;;;;;;4982369;28;20497;-61
2021/04/17 12:30:17;;;;;;;2.20;1.33;;;;;;;;;;4994640;28;20459;-61
2021/04/17 12:32:44;;;;;;;2.03;1.30;;;;;;;;;;4991604;28;20494;-61
2021/04/17 12:35:14;;;;;;;3.30;1.90;;;;;;;;;;4994132;28;20443;-61
2021/04/17 12:37:40;;;;;;;2.20;1.63;;;;;;;;;;4995734;28;20500;-61
2021/04/17 12:40:08;;;;;;;4.60;1.63;;;;;;;;;;4995076;28;20450;-61
2021/04/17 12:42:35;;;;;;;2.10;1.40;;;;;;;;;;4976079;28;20483;-61
2021/04/17 12:45:03;;;;;;;2.00;1.50;;;;;;;;;;4981713;28;20541;-61
2021/04/17 12:47:29;;;;;;;2.50;1.37;;;;;;;;;;4975832;28;20451;-61
2021/04/17 12:49:56;;;;;;;1.70;1.30;;;;;;;;;;4979218;28;20458;-61
2021/04/17 12:52:23;;;;;;;2.53;1.33;;;;;;;;;;4994756;28;20504;-61
2021/04/17 12:54:49;;;;;;;1.73;1.30;;;;;;;;;;4992385;28;20451;-62
2021/04/17 12:57:16;;;;;;;2.40;1.70;;;;;;;;;;4979255;28;20454;-61
2021/04/17 12:59:42;;;;;;;2.37;1.50;;;;;;;;;;4993139;28;20977;-61
2021/04/17 13:02:10;;;;;;;3.17;1.50;;;;;;;;;;4994364;28;20474;-61
2021/04/17 13:04:37;;;;;;;1.57;1.17;;;;;;;;;;4994056;28;20470;-61
2021/04/17 13:07:03;;;;;;;3.13;1.80;;;;;;;;;;4991737;28;20462;-62
2021/04/17 13:09:30;;;;;;;1.57;1.23;;;;;;;;;;4997248;28;20442;-61
2021/04/17 13:11:57;;;;;;;2.33;1.30;;;;;;;;;;4994129;28;20549;-61
2021/04/17 13:14:25;;;;;;;2.40;1.57;;;;;;;;;;4993884;28;20482;-61
2021/04/17 13:16:51;;;;;;;1.73;1.40;;;;;;;;;;4992598;28;20478;-61
2021/04/17 13:19:19;;;;;;;2.17;1.57;;;;;;;;;;4994471;28;20525;-61
2021/04/17 13:21:45;;;;;;;1.70;1.30;;;;;;;;;;4992425;28;20478;-61
2021/04/17 13:24:12;;;;;;;2.50;1.33;;;;;;;;;;4994388;28;20482;-61
2021/04/17 13:26:39;;;;;;;4.23;1.80;;;;;;;;;;4991244;28;20474;-62
2021/04/17 13:29:05;;;;;;;2.97;1.60;;;;;;;;;;4984209;28;20495;-61
2021/04/17 13:31:32;;;;;;;1.57;1.23;;;;;;;;;;4993405;28;21063;-61
2021/04/17 13:33:58;;;;;;;2.40;1.60;;;;;;;;;;4994180;28;20914;-63
2021/04/17 13:36:26;;;;;;;2.57;1.80;;;;;;;;;;4993014;28;20504;-60
2021/04/17 13:38:52;;;;;;;3.73;1.97;;;;;;;;;;4994419;28;20505;-61
2021/04/17 13:41:19;;;;;;;2.60;1.90;;;;;;;;;;4993320;28;20881;-60
2021/04/17 13:43:46;;;;;;;4.30;1.70;;;;;;;;;;4993671;28;20467;-61
2021/04/17 13:46:12;;;;;;;2.70;1.70;;;;;;;;;;4980709;28;20490;-61
2021/04/17 13:48:39;;;;;;;1.80;1.50;;;;;;;;;;4994098;28;20512;-61
2021/04/17 13:51:06;;;;;;;2.30;1.83;;;;;;;;;;4993491;28;20485;-61
2021/04/17 13:53:34;;;;;;;2.30;1.70;;;;;;;;;;4993628;28;20489;-61
2021/04/17 13:56:01;;;;;;;2.73;1.90;;;;;;;;;;4993122;28;20958;-61
2021/04/17 13:58:27;;;;;;;2.00;1.80;;;;;;;;;;4993839;28;20447;-61
2021/04/17 14:00:54;;;;;;;2.90;1.80;;;;;;;;;;4987012;28;20478;-61
2021/04/17 14:03:21;;;;;;;3.23;1.53;;;;;;;;;;4988968;28;20454;-62
2021/04/17 14:05:48;;;;;;;2.20;1.90;;;;;;;;;;4991666;28;20446;-62
2021/04/17 14:08:14;;;;;;;2.20;1.53;;;;;;;;;;4992230;28;20451;-62
2021/04/17 14:10:46;;;;;;;2.03;1.63;;;;;;;;;;4993411;28;20958;-62
2021/04/17 14:13:12;;;;;;;3.07;1.57;;;;;;;;;;4993334;28;21011;-62
2021/04/17 14:15:39;;;;;;;4.27;2.37;;;;;;;;;;4993216;28;20450;-62
2021/04/17 14:18:06;;;;;;;2.20;1.70;;;;;;;;;;4993071;28;20454;-62
2021/04/17 14:20:33;;;;;;;2.83;1.97;;;;;;;;;;4990780;28;20455;-62
2021/04/17 14:23:00;;;;;;;2.43;1.67;;;;;;;;;;4982634;28;21014;-62
2021/04/17 14:25:26;;;;;;;2.27;1.70;;;;;;;;;;4991236;28;20459;-61
2021/04/17 14:27:54;;;;;;;2.87;1.80;;;;;;;;;;4992435;28;20542;-63
2021/04/17 14:30:21;;;;;;;2.10;1.23;;;;;;;;;;4989109;28;20454;-64
2021/04/17 14:32:48;;;;;;;3.80;1.93;;;;;;;;;;4984129;28;20494;-64
2021/04/17 14:35:16;;;;;;;3.30;1.60;;;;;;;;;;4984395;28;20448;-63
2021/04/17 14:37:43;;;;;;;1.97;1.77;;;;;;;;;;4987885;28;20462;-63
2021/04/17 14:40:10;;;;;;;2.37;1.50;;;;;;;;;;4991578;28;20497;-63
2021/04/17 14:42:37;;;;;;;3.07;1.63;;;;;;;;;;4988469;28;20501;-63
2021/04/17 14:45:06;;;;;;;2.03;1.70;;;;;;;;;;4992226;28;20847;-63
2021/04/17 14:47:32;;;;;;;1.57;1.47;;;;;;;;;;4992536;28;20453;-63